createdAt,value
2018-03-08T00:00:05.720Z,68.9
2018-03-08T00:15:08.513Z,68.6
2018-03-08T00:30:04.892Z,69.1
2018-03-08T00:45:06.026Z,69
2018-03-08T01:00:05.030Z,69.3
2018-03-08T01:15:05.423Z,69.7
2018-03-08T01:30:05.507Z,69
2018-03-08T01:45:05.550Z,69.6
2018-03-08T02:00:04.537Z,69.8
2018-03-08T02:15:05.227Z,70.1
2018-03-08T02:30:04.809Z,69.7
2018-03-08T02:45:04.771Z,69.9
2018-03-08T03:00:05.881Z,70.4
2018-03-08T03:15:05.269Z,69.6
2018-03-08T03:30:05.096Z,68.3
2018-03-08T03:45:05.190Z,69.6
2018-03-08T04:00:04.680Z,70.2
2018-03-08T04:15:04.752Z,69
2018-03-08T04:30:04.506Z,70.4
2018-03-08T04:45:04.940Z,69.9
2018-03-08T05:00:05.129Z,69.9
2018-03-08T05:15:05.135Z,70.6
2018-03-08T05:30:04.530Z,70.9
2018-03-08T05:45:05.147Z,70.8
2018-03-08T06:00:05.401Z,70.7
2018-03-08T06:15:04.922Z,70.9
2018-03-08T06:30:05.313Z,71.4
2018-03-08T06:45:04.809Z,71.6
2018-03-08T07:00:04.304Z,71.6
2018-03-08T07:15:04.755Z,72
2018-03-08T07:30:04.348Z,72.8
2018-03-08T07:45:04.927Z,73.7
2018-03-08T08:00:04.965Z,71.7
2018-03-08T08:15:04.488Z,65.9
2018-03-08T08:30:04.814Z,63.5
2018-03-08T08:45:04.725Z,57
2018-03-08T09:00:05.137Z,57.2
2018-03-08T09:15:04.703Z,57.4
2018-03-08T09:30:04.295Z,48.7
2018-03-08T09:45:04.353Z,36.9
2018-03-08T10:00:05.317Z,34.7
2018-03-08T10:15:05.325Z,36.6
2018-03-08T10:30:05.029Z,43.6
2018-03-08T10:45:04.969Z,45.6
2018-03-08T11:00:04.975Z,46.2
2018-03-08T11:15:04.970Z,47.7
2018-03-08T11:30:05.206Z,49.1
2018-03-08T11:45:04.605Z,48.8
2018-03-08T12:00:05.032Z,48.3
2018-03-08T12:15:04.439Z,49.1
2018-03-08T12:30:04.639Z,50.4
2018-03-08T12:45:04.666Z,49.5
2018-03-08T13:00:04.662Z,49
2018-03-08T13:15:04.677Z,49
2018-03-08T13:30:04.784Z,48.1
2018-03-08T13:45:05.225Z,47.5
2018-03-08T14:00:04.654Z,45.9
2018-03-08T14:15:05.183Z,46.8
2018-03-08T14:30:04.327Z,47.4
2018-03-08T14:45:04.305Z,46.5
2018-03-08T15:00:05.274Z,46.9
2018-03-08T15:15:04.677Z,46.6
2018-03-08T15:30:04.795Z,45.7
2018-03-08T15:45:04.717Z,45.4
2018-03-08T16:00:04.653Z,45.8
2018-03-08T16:15:04.618Z,45.9
2018-03-08T16:30:04.832Z,46.6
2018-03-08T16:45:04.323Z,46.3
2018-03-08T17:00:04.751Z,46.8
2018-03-08T17:15:05.278Z,48.8
2018-03-08T17:30:04.704Z,49.4
2018-03-08T17:45:05.109Z,50.9
2018-03-08T18:00:04.545Z,51.4
2018-03-08T18:15:04.948Z,52.4
2018-03-08T18:30:04.573Z,52.2
2018-03-08T18:45:04.653Z,52.5
2018-03-08T19:00:05.190Z,53.1
2018-03-08T19:15:05.054Z,53.8
2018-03-08T19:30:05.285Z,54.1
2018-03-08T19:45:04.725Z,54.4
2018-03-08T20:00:05.251Z,55.4
2018-03-08T20:15:05.213Z,54.9
2018-03-08T20:30:05.073Z,55
2018-03-08T20:45:04.814Z,55.5
2018-03-08T21:00:04.889Z,55.2
2018-03-08T21:15:04.387Z,55.4
2018-03-08T21:30:05.181Z,55.4
2018-03-08T21:45:04.920Z,55.8
2018-03-08T22:00:04.473Z,55.3
2018-03-08T22:15:04.763Z,55.7
2018-03-08T22:30:04.575Z,55.9
2018-03-08T22:45:05.952Z,55.5
2018-03-08T23:00:04.375Z,54
2018-03-08T23:15:04.863Z,53.5
2018-03-08T23:30:04.641Z,53.9
2018-03-08T23:45:05.353Z,53.9
